createdAt,value
2022-11-05T00:02:33.702Z,91.96
2022-11-05T00:05:53.195Z,91.50
2022-11-05T00:08:38.346Z,91.00
2022-11-05T00:11:18.313Z,91.29
2022-11-05T00:14:04.821Z,90.71
2022-11-05T00:16:46.546Z,90.94
2022-11-05T00:19:13.582Z,91.01
2022-11-05T00:21:58.674Z,90.25
2022-11-05T00:24:45.875Z,90.60
2022-11-05T00:27:12.427Z,90.34
2022-11-05T00:29:39.023Z,90.50
2022-11-05T00:32:21.392Z,90.64
2022-11-05T00:35:03.900Z,90.31
2022-11-05T00:37:31.059Z,90.72
2022-11-05T00:39:58.001Z,90.54
2022-11-05T00:42:43.477Z,90.05
2022-11-05T00:45:10.449Z,90.25
2022-11-05T00:47:58.146Z,89.96
2022-11-05T00:50:25.172Z,90.23
2022-11-05T00:52:57.368Z,89.79
2022-11-05T00:55:33.508Z,90.16
2022-11-05T00:58:01.504Z,90.03
2022-11-05T01:00:30.314Z,90.29
2022-11-05T01:03:02.193Z,91.17
2022-11-05T01:05:31.703Z,90.65
2022-11-05T01:07:59.118Z,90.52
2022-11-05T01:10:26.148Z,90.64
2022-11-05T01:12:54.188Z,90.69
2022-11-05T01:15:21.417Z,90.71
2022-11-05T01:17:54.683Z,90.52
2022-11-05T01:20:21.595Z,90.57
2022-11-05T01:22:48.671Z,90.10
2022-11-05T01:25:15.508Z,89.94
2022-11-05T01:27:45.933Z,90.33
2022-11-05T01:30:14.312Z,90.13
2022-11-05T01:32:47.870Z,89.97
2022-11-05T01:35:17.958Z,89.81
2022-11-05T01:37:51.196Z,89.99
2022-11-05T01:40:21.505Z,90.22
2022-11-05T01:42:50.885Z,90.06
2022-11-05T01:45:21.872Z,90.12
2022-11-05T01:48:32.464Z,89.98
2022-11-05T01:51:07.187Z,89.73
2022-11-05T01:53:51.355Z,90.04
2022-11-05T01:56:30.302Z,89.49
2022-11-05T01:59:07.175Z,90.13
2022-11-05T02:01:34.076Z,89.53
2022-11-05T02:04:04.565Z,89.67
2022-11-05T02:06:35.060Z,89.82
2022-11-05T02:09:21.033Z,89.71
2022-11-05T02:11:48.802Z,89.90
2022-11-05T02:14:15.544Z,89.87
2022-11-05T02:16:58.507Z,90.14
2022-11-05T02:20:04.906Z,90.03
2022-11-05T02:22:35.523Z,89.91
2022-11-05T02:25:58.918Z,90.01
2022-11-05T02:29:03.180Z,89.94
2022-11-05T02:31:55.469Z,89.96
2022-11-05T02:35:09.594Z,89.94
2022-11-05T02:37:50.670Z,90.02
2022-11-05T02:40:32.604Z,90.04
2022-11-05T02:43:29.343Z,90.04
2022-11-05T02:46:18.545Z,89.93
2022-11-05T02:49:08.902Z,90.09
2022-11-05T02:51:44.221Z,90.24
2022-11-05T02:54:32.206Z,90.00
2022-11-05T02:57:05.541Z,90.25
2022-11-05T02:59:32.043Z,90.29
2022-11-05T03:02:00.930Z,90.21
2022-11-05T03:04:27.969Z,89.74
2022-11-05T03:07:19.411Z,89.80
2022-11-05T03:10:04.746Z,89.87
2022-11-05T03:12:59.642Z,90.12
2022-11-05T03:15:39.383Z,89.91
2022-11-05T03:18:10.536Z,89.84
2022-11-05T03:21:05.666Z,89.93
2022-11-05T03:23:50.822Z,89.69
2022-11-05T03:26:37.527Z,89.69
2022-11-05T03:29:16.634Z,89.71
2022-11-05T03:31:47.550Z,89.83
2022-11-05T03:34:17.545Z,90.00
2022-11-05T03:36:49.991Z,89.69
2022-11-05T03:39:22.165Z,89.51
2022-11-05T03:41:52.103Z,89.72
2022-11-05T03:44:27.915Z,89.90
2022-11-05T03:47:02.624Z,89.43
2022-11-05T03:49:38.196Z,89.93
2022-11-05T03:52:11.043Z,89.43
2022-11-05T03:54:37.918Z,89.67
2022-11-05T03:57:14.590Z,89.63
2022-11-05T03:59:48.473Z,89.40
2022-11-05T04:02:18.511Z,90.02
2022-11-05T04:04:45.607Z,89.88
2022-11-05T04:07:31.924Z,90.15
2022-11-05T04:10:17.036Z,90.10
2022-11-05T04:13:02.198Z,90.08
2022-11-05T04:15:51.456Z,89.88
2022-11-05T04:18:18.061Z,89.86
2022-11-05T04:21:06.955Z,89.54
2022-11-05T04:23:51.980Z,89.96
2022-11-05T04:26:23.400Z,90.13
2022-11-05T04:29:09.482Z,89.95
2022-11-05T04:31:36.386Z,90.59
2022-11-05T04:34:05.188Z,90.46
2022-11-05T04:36:31.852Z,91.07
2022-11-05T04:38:58.476Z,91.06
2022-11-05T04:41:25.469Z,90.38
2022-11-05T04:43:52.070Z,90.84
2022-11-05T04:46:18.738Z,90.82
2022-11-05T04:48:45.335Z,90.91
2022-11-05T04:51:11.850Z,90.75
2022-11-05T04:53:38.315Z,91.15
2022-11-05T04:56:24.802Z,91.09
2022-11-05T04:58:51.489Z,91.12
2022-11-05T05:01:20.811Z,91.29
2022-11-05T05:03:48.485Z,90.88
2022-11-05T05:06:15.700Z,91.35
2022-11-05T05:08:42.621Z,91.48
2022-11-05T05:11:12.155Z,91.56
2022-11-05T05:13:38.623Z,91.28
2022-11-05T05:16:07.512Z,91.50
2022-11-05T05:18:34.648Z,91.49
2022-11-05T05:21:20.415Z,91.23
2022-11-05T05:23:48.598Z,91.49
2022-11-05T05:26:16.286Z,91.65
2022-11-05T05:28:45.873Z,91.98
2022-11-05T05:31:12.612Z,91.83
2022-11-05T05:33:39.012Z,92.25
2022-11-05T05:36:11.139Z,92.29
2022-11-05T05:38:41.096Z,91.97
2022-11-05T05:41:07.566Z,91.71
2022-11-05T05:43:34.204Z,92.06
2022-11-05T05:46:08.801Z,91.75
2022-11-05T05:48:35.360Z,91.21
2022-11-05T05:51:36.925Z,91.37
2022-11-05T05:54:03.691Z,91.28
2022-11-05T05:56:47.468Z,91.35
2022-11-05T05:59:32.714Z,91.31
2022-11-05T06:02:05.315Z,91.23
2022-11-05T06:04:31.845Z,90.89
2022-11-05T06:06:58.349Z,90.86
2022-11-05T06:09:25.875Z,91.28
2022-11-05T06:11:52.377Z,91.25
2022-11-05T06:14:22.096Z,90.73
2022-11-05T06:16:48.756Z,90.32
2022-11-05T06:19:15.214Z,90.75
2022-11-05T06:21:45.051Z,90.69
2022-11-05T06:24:11.517Z,90.94
2022-11-05T06:26:42.787Z,90.34
2022-11-05T06:29:11.315Z,90.54
2022-11-05T06:31:37.776Z,90.47
2022-11-05T06:34:04.234Z,90.51
2022-11-05T06:36:42.851Z,90.69
2022-11-05T06:39:13.049Z,91.16
2022-11-05T06:42:04.041Z,91.04
2022-11-05T06:44:26.067Z,90.92
2022-11-05T06:46:52.863Z,91.47
2022-11-05T06:49:24.650Z,91.47
2022-11-05T06:51:52.113Z,91.47
2022-11-05T06:54:18.666Z,91.60
2022-11-05T06:57:00.530Z,91.56
2022-11-05T06:59:27.029Z,91.54
2022-11-05T07:01:55.951Z,91.78
2022-11-05T07:04:22.521Z,91.55
2022-11-05T07:06:49.072Z,91.69
2022-11-05T07:09:15.600Z,91.81
2022-11-05T07:11:50.332Z,91.71
2022-11-05T07:14:25.025Z,91.45
2022-11-05T07:16:51.501Z,92.06
2022-11-05T07:19:17.993Z,91.68
2022-11-05T07:21:45.924Z,91.78
2022-11-05T07:24:14.408Z,91.76
2022-11-05T07:26:44.083Z,91.62
2022-11-05T07:29:10.540Z,91.68
2022-11-05T07:31:52.389Z,91.98
2022-11-05T07:34:18.890Z,91.52
2022-11-05T07:36:45.343Z,91.99
2022-11-05T07:39:13.795Z,91.64
2022-11-05T07:41:40.344Z,91.92
2022-11-05T07:44:33.970Z,91.98
2022-11-05T07:47:00.380Z,92.12
2022-11-05T07:49:37.144Z,92.11
2022-11-05T07:52:31.903Z,92.08
2022-11-05T07:54:58.505Z,92.50
2022-11-05T07:57:24.964Z,92.22
2022-11-05T08:00:23.356Z,92.22
2022-11-05T08:07:16.374Z,92.75
2022-11-05T08:09:42.774Z,92.11
2022-11-05T08:12:33.772Z,92.43
2022-11-05T08:15:02.275Z,92.61
2022-11-05T08:18:23.038Z,92.57
2022-11-05T08:20:49.497Z,92.75
2022-11-05T08:23:16.272Z,92.74
2022-11-05T08:25:42.880Z,92.75
2022-11-05T08:28:12.980Z,92.25
2022-11-05T08:30:39.710Z,92.08
2022-11-05T08:33:12.618Z,92.33
2022-11-05T08:35:41.033Z,92.12
2022-11-05T08:38:10.332Z,92.09
2022-11-05T08:40:44.790Z,91.95
2022-11-05T08:43:16.417Z,91.07
2022-11-05T08:45:43.073Z,90.38
2022-11-05T08:48:18.600Z,90.27
2022-11-05T08:51:00.268Z,90.02
2022-11-05T08:53:26.805Z,89.72
2022-11-05T08:55:57.868Z,88.93
2022-11-05T08:58:25.362Z,88.95
2022-11-05T09:00:54.237Z,88.89
2022-11-05T09:03:21.067Z,89.56
2022-11-05T09:05:47.917Z,89.68
2022-11-05T09:08:19.045Z,89.75
2022-11-05T09:10:47.309Z,89.96
2022-11-05T09:13:18.660Z,90.50
2022-11-05T09:15:47.549Z,90.87
2022-11-05T09:18:16.251Z,90.65
2022-11-05T09:20:44.855Z,90.02
2022-11-05T09:23:25.459Z,90.42
2022-11-05T09:26:11.042Z,90.66
2022-11-05T09:28:38.301Z,90.77
2022-11-05T09:31:11.036Z,90.89
2022-11-05T09:33:43.764Z,91.50
2022-11-05T09:36:37.082Z,91.81
2022-11-05T09:39:03.767Z,91.95
2022-11-05T09:41:35.947Z,91.76
2022-11-05T09:44:13.700Z,91.85
2022-11-05T09:46:54.050Z,92.29
2022-11-05T09:49:28.077Z,92.60
2022-11-05T09:52:28.748Z,92.29
2022-11-05T09:54:56.245Z,91.67
2022-11-05T09:57:48.939Z,91.95
2022-11-05T10:00:19.219Z,91.88
2022-11-05T10:02:53.737Z,92.50
2022-11-05T10:05:22.059Z,92.31
2022-11-05T10:07:53.025Z,92.18
2022-11-05T10:10:43.175Z,91.94
2022-11-05T10:13:52.328Z,91.72
2022-11-05T10:16:56.804Z,91.77
2022-11-05T10:19:27.186Z,92.26
2022-11-05T10:22:16.433Z,92.17
2022-11-05T10:24:47.165Z,92.16
2022-11-05T10:27:33.957Z,91.92
2022-11-05T10:30:00.606Z,91.77
2022-11-05T10:32:34.668Z,92.11
2022-11-05T10:35:04.044Z,91.79
2022-11-05T10:37:32.498Z,91.53
2022-11-05T10:40:00.887Z,90.79
2022-11-05T10:43:13.659Z,91.04
2022-11-05T10:45:55.411Z,91.01
2022-11-05T10:49:00.858Z,91.09
2022-11-05T10:51:27.865Z,90.29
2022-11-05T10:54:02.249Z,90.98
2022-11-05T10:56:32.822Z,90.21
2022-11-05T10:59:00.907Z,90.13
2022-11-05T11:01:30.483Z,90.53
2022-11-05T11:04:16.749Z,89.40
2022-11-05T11:06:54.083Z,90.00
2022-11-05T11:09:27.258Z,89.09
2022-11-05T11:12:04.841Z,89.01
2022-11-05T11:14:36.411Z,88.49
2022-11-05T11:17:32.627Z,88.28
2022-11-05T11:20:25.178Z,87.07
2022-11-05T11:23:02.415Z,87.70
2022-11-05T11:25:40.595Z,88.05
2022-11-05T11:28:47.211Z,88.36
2022-11-05T11:31:27.164Z,88.58
2022-11-05T11:34:05.271Z,88.74
2022-11-05T11:36:56.046Z,88.90
2022-11-05T11:39:28.553Z,88.38
2022-11-05T11:42:00.182Z,88.27
2022-11-05T11:44:30.763Z,87.46
2022-11-05T11:47:02.014Z,88.17
2022-11-05T11:49:46.831Z,87.89
2022-11-05T11:52:18.601Z,87.32
2022-11-05T11:54:45.294Z,88.49
2022-11-05T11:58:04.503Z,88.57
2022-11-05T12:00:32.856Z,87.60
2022-11-05T12:03:10.061Z,87.60
2022-11-05T12:05:43.608Z,88.19
2022-11-05T12:08:45.275Z,88.06
2022-11-05T12:11:25.475Z,87.93
2022-11-05T12:14:00.198Z,88.82
2022-11-05T12:16:40.264Z,88.75
2022-11-05T12:19:22.487Z,88.35
2022-11-05T12:21:53.107Z,88.25
2022-11-05T12:25:02.367Z,88.35
2022-11-05T12:27:42.612Z,88.63
2022-11-05T12:30:18.594Z,87.58
2022-11-05T12:33:22.040Z,87.51
2022-11-05T12:36:15.494Z,88.10
2022-11-05T12:38:54.037Z,87.14
2022-11-05T12:41:33.213Z,87.23
2022-11-05T12:44:32.291Z,87.52
2022-11-05T12:47:06.407Z,86.88
2022-11-05T12:49:47.465Z,86.78
2022-11-05T12:52:33.132Z,86.20
2022-11-05T12:55:05.528Z,85.97
2022-11-05T12:57:36.192Z,85.78
2022-11-05T13:00:19.172Z,86.33
2022-11-05T13:02:58.086Z,87.13
2022-11-05T13:05:34.579Z,86.55
2022-11-05T13:08:35.865Z,86.76
2022-11-05T13:11:27.422Z,86.16
2022-11-05T13:14:20.503Z,86.66
2022-11-05T13:16:55.502Z,86.92
2022-11-05T13:19:30.093Z,87.57
2022-11-05T13:22:12.239Z,87.49
2022-11-05T13:25:02.568Z,87.98
2022-11-05T13:27:48.102Z,86.77
2022-11-05T13:30:41.609Z,86.28
2022-11-05T13:33:37.831Z,87.16
2022-11-05T13:36:42.726Z,86.71
2022-11-05T13:39:17.974Z,87.54
2022-11-05T13:42:15.888Z,87.52
2022-11-05T13:44:45.129Z,87.25
2022-11-05T13:47:19.514Z,86.34
2022-11-05T13:50:02.920Z,85.55
2022-11-05T13:52:56.677Z,85.30
2022-11-05T13:55:38.303Z,85.98
2022-11-05T13:58:33.722Z,85.30
2022-11-05T14:01:16.600Z,84.54
2022-11-05T14:03:53.047Z,84.76
2022-11-05T14:06:27.005Z,85.66
2022-11-05T14:08:58.306Z,85.81
2022-11-05T14:11:34.883Z,85.53
2022-11-05T14:14:04.295Z,84.92
2022-11-05T14:16:50.698Z,85.30
2022-11-05T14:19:20.151Z,86.09
2022-11-05T14:21:51.069Z,85.15
2022-11-05T14:24:23.464Z,85.17
2022-11-05T14:27:02.126Z,85.87
2022-11-05T14:29:46.156Z,85.05
2022-11-05T14:32:18.798Z,85.62
2022-11-05T14:35:23.758Z,86.49
2022-11-05T14:37:57.861Z,85.78
2022-11-05T14:40:31.881Z,86.06
2022-11-05T14:43:04.602Z,84.82
2022-11-05T14:45:35.238Z,85.94
2022-11-05T14:48:05.286Z,86.05
2022-11-05T14:50:40.614Z,85.86
2022-11-05T14:53:25.977Z,86.84
2022-11-05T14:56:10.832Z,86.98
2022-11-05T14:58:39.895Z,86.17
2022-11-05T15:01:32.120Z,85.74
2022-11-05T15:04:17.525Z,86.45
2022-11-05T15:07:02.182Z,87.15
2022-11-05T15:09:55.753Z,86.86
2022-11-05T15:12:42.095Z,87.25
2022-11-05T15:15:28.854Z,86.66
2022-11-05T15:18:18.832Z,85.69
2022-11-05T15:20:56.515Z,86.33
2022-11-05T15:23:26.003Z,86.83
2022-11-05T15:26:33.787Z,87.09
2022-11-05T15:29:01.402Z,87.53
2022-11-05T15:31:36.088Z,87.55
2022-11-05T15:34:14.575Z,87.81
2022-11-05T15:36:47.626Z,87.21
2022-11-05T15:39:29.902Z,86.08
2022-11-05T20:40:03.850Z,88.71
2022-11-05T20:42:30.232Z,88.30
2022-11-05T20:44:56.566Z,87.92
2022-11-05T20:47:23.226Z,87.88
2022-11-05T20:49:49.580Z,87.83
2022-11-05T20:52:17.179Z,87.51
2022-11-05T20:54:44.115Z,87.72
2022-11-05T20:57:10.467Z,88.00
2022-11-05T20:59:36.819Z,87.36
2022-11-05T21:02:03.785Z,87.30
2022-11-05T21:04:30.473Z,87.41
2022-11-05T21:06:56.839Z,87.48
2022-11-05T21:09:23.293Z,87.23
2022-11-05T21:12:08.420Z,87.39
2022-11-05T21:14:34.906Z,86.65
2022-11-05T21:17:01.300Z,87.49
2022-11-05T21:19:29.374Z,87.49
2022-11-05T21:21:55.743Z,87.94
2022-11-05T21:24:22.132Z,86.64
2022-11-05T21:26:49.977Z,87.19
2022-11-05T21:29:17.108Z,87.69
2022-11-05T21:31:44.045Z,86.72
2022-11-05T21:34:10.418Z,87.10
2022-11-05T21:36:36.866Z,87.13
2022-11-05T21:39:06.626Z,87.26
2022-11-05T21:41:35.529Z,86.91
2022-11-05T21:44:04.166Z,86.66
2022-11-05T21:46:30.834Z,86.85
2022-11-05T21:48:57.339Z,86.34
2022-11-05T21:51:42.316Z,87.41
2022-11-05T21:54:29.087Z,87.03
2022-11-05T21:57:14.394Z,87.05
2022-11-05T21:59:51.608Z,86.74
2022-11-05T22:02:21.089Z,87.42
2022-11-05T22:04:51.175Z,86.78
2022-11-05T22:07:22.714Z,86.52
2022-11-05T22:09:49.513Z,86.97
2022-11-05T22:12:16.069Z,87.07
2022-11-05T22:14:43.142Z,87.17
2022-11-05T22:17:10.790Z,86.78
2022-11-05T22:19:37.601Z,86.38
2022-11-05T22:22:05.380Z,86.59
2022-11-05T22:24:32.074Z,86.36
2022-11-05T22:27:00.086Z,86.87
2022-11-05T22:29:27.426Z,86.74
2022-11-05T22:31:54.204Z,86.99
2022-11-05T22:34:21.067Z,86.62
2022-11-05T22:36:47.462Z,86.66
2022-11-05T22:39:13.952Z,87.05
2022-11-05T22:41:41.018Z,86.73
2022-11-05T22:44:07.557Z,86.38
2022-11-05T22:46:33.933Z,86.61
2022-11-05T22:49:00.388Z,86.75
2022-11-05T22:51:32.365Z,87.08
2022-11-05T22:53:59.851Z,86.87
2022-11-05T22:56:30.683Z,87.31
2022-11-05T22:58:57.255Z,86.39
2022-11-05T23:01:25.240Z,87.29
2022-11-05T23:03:53.973Z,86.66
2022-11-05T23:06:48.066Z,86.63
2022-11-05T23:09:45.120Z,86.81
2022-11-05T23:12:25.676Z,86.97
2022-11-05T23:14:53.763Z,86.78
2022-11-05T23:17:38.597Z,86.53
2022-11-05T23:20:25.865Z,86.67
2022-11-05T23:23:10.519Z,86.30
2022-11-05T23:25:37.082Z,86.43
2022-11-05T23:28:07.346Z,87.03
2022-11-05T23:30:33.862Z,87.30
2022-11-05T23:33:00.212Z,87.20
2022-11-05T23:35:45.285Z,86.94
2022-11-05T23:38:30.228Z,86.76
2022-11-05T23:41:22.599Z,87.17
2022-11-05T23:44:07.846Z,86.96
2022-11-05T23:46:53.072Z,87.16
2022-11-05T23:49:19.626Z,87.30
2022-11-05T23:51:46.134Z,87.06
2022-11-05T23:54:13.822Z,86.81
2022-11-05T23:56:40.227Z,87.54
2022-11-05T23:59:07.015Z,87.54
